tititudorancea.com
Station Historical Data
Daily Summary for Nil La, TWC- Units:  Metric    English   Both
« Previous Day
Next Day »
Daily Weekly Monthly Yearly Custom
  High: Low: Average:
Temperature: -17.8 °C 7.5 °C 7.8 °C
Dew Point: -17.8 °C 5.3 °C 5.6 °C
Humidity: Humidity % 74 % 83 %
Wind Speed: 0 km/h 9.3 km/h 19.2 km/h
Wind Gust: 0 km/h - -
Wind:- - NNW
Pressure: 0 hPa 1004.3 hPa -
Precipitation: 0.51 mm    
Historical Graphs
 
 
Ararat weather Find more about Weather in Ararat, AU


 



 


Tabular Data for Nil La, TWC-
Time Temperature Dew Point Pressure Wind Wind Speed Wind Gust Humidity Rainfall Rate (Hourly)
-17.8 °C -17.8 °C 0 hPa Calm     Humidity % 0 mm
00:04 7.5 °C 6.3 °C 1004.3 hPa NNW 25.9 km/h 15.1 km/h 92 % 0 mm
00:09 7.6 °C 6.3 °C 1004.6 hPa North 18.5 km/h 11.7 km/h 92 % 0 mm
00:14 7.6 °C 6.4 °C 1004.6 hPa North 18.5 km/h 12.6 km/h 92 % 0 mm
00:19 7.6 °C 6.4 °C 1004.6 hPa North 18.5 km/h 14.2 km/h 92 % 0 mm
00:24 7.7 °C 6.4 °C 1004.6 hPa NNW 16.7 km/h 10.8 km/h 92 % 0 mm
00:29 7.7 °C 6.4 °C 1004.6 hPa North 18.5 km/h 10.8 km/h 92 % 0 mm
00:34 7.7 °C 6.5 °C 1004.6 hPa North 18.5 km/h 12.4 km/h 92 % 0 mm
00:39 7.8 °C 6.7 °C 1004.6 hPa NNW 20.4 km/h 13.7 km/h 93 % 0 mm
00:44 7.8 °C 6.6 °C 1005 hPa NW 18.5 km/h 11.6 km/h 92 % 0 mm
00:49 7.7 °C 6.7 °C 1005 hPa North 16.1 km/h 8.9 km/h 93 % 0 mm
00:53 7.8 °C 6.7 °C 1005 hPa NNW 13 km/h 9.5 km/h 93 % 0.25 mm
00:59 7.8 °C 6.7 °C 1005.3 hPa North 9.3 km/h 6.9 km/h 93 % 0.25 mm
01:04 7.8 °C 6.8 °C 1005.3 hPa North 9.3 km/h 6.6 km/h 93 % 0.25 mm
01:09 8 °C 6.9 °C 1005.3 hPa WNW 20.4 km/h 17.2 km/h 93 % 0.25 mm
01:14 8.3 °C 7.1 °C 1005 hPa NW 11.1 km/h 6 km/h 92 % 0.51 mm
01:19 8.3 °C 7.1 °C 1005 hPa NNW 13 km/h 10.8 km/h 92 % 0.51 mm
01:24 8.4 °C 7 °C 1005 hPa NW 11.3 km/h 7.1 km/h 91 % 0.51 mm
01:29 8.4 °C 6.8 °C 1005.3 hPa NW 11.1 km/h 6.6 km/h 90 % 0.51 mm
01:34 8.4 °C 6.7 °C 1005.3 hPa WNW 25.9 km/h 21.4 km/h 89 % 0.51 mm
01:39 8.6 °C 6.5 °C 1005.3 hPa WNW 22.2 km/h 12.6 km/h 87 % 0.51 mm
01:44 8.7 °C 6.1 °C 1005.3 hPa WNW 24.1 km/h 22.5 km/h 84 % 0.51 mm
01:49 8.9 °C 5.8 °C 1005.3 hPa West 42.6 km/h 30.7 km/h 81 % 0.51 mm
01:54 9.2 °C 5.6 °C 1005.6 hPa WNW 18.5 km/h 16.6 km/h 78 % 0.25 mm
01:59 9.2 °C 5.4 °C 1005.6 hPa North 29.6 km/h 19.2 km/h 77 % 0.25 mm
02:04 9.4 °C 5.4 °C 1005.6 hPa WNW 25.9 km/h 20.3 km/h 76 % 0.25 mm
02:09 9.7 °C 5.3 °C 1006 hPa West 33.3 km/h 19 km/h 74 % 0.25 mm
02:14 9.8 °C 5.4 °C 1006 hPa WNW 27.8 km/h 25.7 km/h 74 % 0 mm
02:19 9.8 °C 5.4 °C 1006 hPa NW 20.4 km/h 13.2 km/h 74 % 0 mm
02:24 9.7 °C 5.5 °C 1006.3 hPa NW 16.7 km/h 9.8 km/h 75 % 0 mm
02:29 9.6 °C 5.6 °C 1006 hPa NW 13 km/h 10 km/h 76 % 0 mm
02:34 9.4 °C 5.6 °C 1006 hPa North 11.1 km/h 9 km/h 77 % 0 mm
02:39 9.4 °C 5.8 °C 1006 hPa NW 27.8 km/h 14.5 km/h 78 % 0 mm
02:44 9.5 °C 5.8 °C 1006 hPa NW 11.3 km/h 7.9 km/h 78 % 0 mm
02:49 9.4 °C 5.8 °C 1006 hPa North 18.5 km/h 11.9 km/h 78 % 0 mm
02:54 9.6 °C 5.6 °C 1006 hPa NW 29.6 km/h 18.2 km/h 76 % 0 mm
Ararat Weather
Compliments of Weather Underground - 1 mb
Click here to send mail.


ABOUT

Live weather data from Ararat, Victoria, Australia, 3377
Data uploaded from Cumulus every 5 minutes to Weather Underground.
This site then downloads the raw data for formatting and display.
Metric and imperial data can be displayed. Graphs and historical data available.
Includes Sun and Moon times and rain image live from BOM.

Check out Ararat Weather on Facebook, Twitter and Google +

Help support ongoing costs by checking out the ads





Follow @AraratWeather